createdAt,value
2018-07-19T00:00:07.833Z,27.24
2018-07-19T00:02:38.637Z,27.25
2018-07-19T00:05:09.405Z,27.04
2018-07-19T00:07:40.277Z,27.11
2018-07-19T00:10:10.973Z,27.14
2018-07-19T00:12:41.673Z,27.09
2018-07-19T00:15:12.295Z,27.01
2018-07-19T00:17:42.989Z,26.85
2018-07-19T00:20:13.542Z,26.95
2018-07-19T00:22:44.756Z,26.96
2018-07-19T00:25:15.485Z,26.65
2018-07-19T00:27:46.100Z,26.75
2018-07-19T00:30:16.692Z,26.74
2018-07-19T00:32:47.593Z,26.65
2018-07-19T00:35:18.153Z,26.42
2018-07-19T00:37:49.065Z,26.55
2018-07-19T00:40:19.878Z,26.48
2018-07-19T00:42:50.634Z,26.63
2018-07-19T00:45:21.347Z,26.55
2018-07-19T00:47:51.964Z,26.66
2018-07-19T00:50:22.710Z,26.67
2018-07-19T00:52:53.609Z,26.55
2018-07-19T00:55:24.229Z,26.71
2018-07-19T00:57:55.177Z,26.66
2018-07-19T01:00:25.808Z,26.72
2018-07-19T01:02:56.674Z,26.69
2018-07-19T01:05:27.447Z,26.79
2018-07-19T01:07:58.333Z,26.73
2018-07-19T01:10:28.981Z,26.70
2018-07-19T01:12:59.913Z,26.71
2018-07-19T01:15:30.812Z,26.63
2018-07-19T01:18:01.473Z,26.52
2018-07-19T01:20:32.182Z,26.48
2018-07-19T01:23:02.789Z,26.77
2018-07-19T01:25:33.438Z,26.65
2018-07-19T01:28:04.197Z,26.59
2018-07-19T01:30:34.746Z,26.66
2018-07-19T01:33:05.634Z,26.61
2018-07-19T01:35:36.332Z,26.73
2018-07-19T01:38:07.232Z,26.79
2018-07-19T01:40:37.991Z,26.88
2018-07-19T01:43:08.847Z,26.63
2018-07-19T01:45:39.460Z,26.86
2018-07-19T01:48:10.229Z,26.90
2018-07-19T01:50:41.028Z,26.73
2018-07-19T01:53:11.661Z,26.87
2018-07-19T01:55:42.449Z,26.94
2018-07-19T01:58:13.197Z,26.94
2018-07-19T02:00:43.808Z,26.92
2018-07-19T02:03:14.897Z,26.84
2018-07-19T02:05:45.638Z,26.83
2018-07-19T02:08:16.376Z,26.93
2018-07-19T02:10:48.922Z,26.97
2018-07-19T02:13:20.105Z,27.03
2018-07-19T02:15:50.841Z,26.88
2018-07-19T02:18:21.749Z,26.95
2018-07-19T02:20:52.344Z,26.99
2018-07-19T02:23:23.017Z,26.95
2018-07-19T02:25:53.673Z,26.93
2018-07-19T02:28:24.376Z,26.88
2018-07-19T02:30:55.197Z,26.95
2018-07-19T02:33:25.962Z,27.01
2018-07-19T02:35:56.660Z,27.04
2018-07-19T02:38:27.420Z,26.60
2018-07-19T02:40:58.066Z,26.51
2018-07-19T02:43:28.960Z,26.71
2018-07-19T02:45:59.694Z,26.64
2018-07-19T02:48:30.425Z,26.75
2018-07-19T02:51:01.028Z,26.68
2018-07-19T02:53:31.779Z,26.84
2018-07-19T02:56:02.466Z,26.48
2018-07-19T02:58:33.533Z,26.81
2018-07-19T03:01:04.314Z,26.69
2018-07-19T03:03:35.113Z,26.72
2018-07-19T03:06:05.970Z,26.70
2018-07-19T03:08:36.745Z,26.75
2018-07-19T03:11:07.384Z,26.63
2018-07-19T03:13:38.265Z,26.53
2018-07-19T03:16:08.941Z,26.68
2018-07-19T03:18:39.732Z,26.46
2018-07-19T03:21:10.269Z,26.51
2018-07-19T03:23:41.034Z,26.56
2018-07-19T03:26:11.944Z,26.73
2018-07-19T03:28:42.760Z,26.53
2018-07-19T03:31:13.353Z,26.67
2018-07-19T03:33:44.184Z,26.66
2018-07-19T03:36:14.613Z,26.61
2018-07-19T03:38:45.419Z,26.74
2018-07-19T03:41:16.033Z,26.67
2018-07-19T03:43:46.937Z,26.73
2018-07-19T03:46:17.640Z,26.73
2018-07-19T03:48:48.385Z,26.73
2018-07-19T03:51:19.014Z,26.78
2018-07-19T03:53:50.061Z,26.69
2018-07-19T03:56:20.687Z,26.87
2018-07-19T03:58:51.645Z,26.82
2018-07-19T04:01:22.353Z,26.89
2018-07-19T04:03:52.942Z,26.73
2018-07-19T04:06:23.561Z,26.93
2018-07-19T04:08:54.440Z,26.89
2018-07-19T04:11:25.157Z,26.76
2018-07-19T04:13:55.886Z,27.05
2018-07-19T04:16:26.605Z,27.24
2018-07-19T04:18:57.190Z,26.97
2018-07-19T04:21:27.929Z,27.19
2018-07-19T04:23:58.806Z,27.10
2018-07-19T04:26:29.452Z,27.28
2018-07-19T04:29:00.444Z,27.45
2018-07-19T04:31:30.965Z,27.34
2018-07-19T04:34:01.794Z,27.56
2018-07-19T04:36:32.432Z,27.43
2018-07-19T04:39:06.782Z,27.63
2018-07-19T04:41:37.489Z,27.84
2018-07-19T04:44:09.185Z,27.68
2018-07-19T04:46:39.945Z,27.79
2018-07-19T04:49:11.025Z,28.10
2018-07-19T04:51:41.645Z,27.88
2018-07-19T04:54:12.320Z,27.85
2018-07-19T04:56:42.940Z,28.25
2018-07-19T04:59:13.720Z,28.42
2018-07-19T05:01:44.600Z,28.61
2018-07-19T05:04:15.453Z,29.01
2018-07-19T05:06:46.149Z,29.17
2018-07-19T05:09:17.797Z,29.37
2018-07-19T05:11:48.521Z,29.48
2018-07-19T05:14:18.856Z,29.89
2018-07-19T05:16:49.577Z,29.46
2018-07-19T05:19:20.197Z,29.59
2018-07-19T05:21:50.832Z,29.83
2018-07-19T05:24:21.661Z,30.03
2018-07-19T05:26:52.337Z,29.93
2018-07-19T05:29:23.153Z,29.65
2018-07-19T05:31:53.840Z,29.82
2018-07-19T05:34:24.790Z,29.79
2018-07-19T05:36:55.565Z,29.88
2018-07-19T05:39:26.316Z,29.60
2018-07-19T05:41:57.849Z,29.48
2018-07-19T05:44:29.069Z,29.43
2018-07-19T05:46:59.621Z,29.39
2018-07-19T05:49:30.178Z,29.42
2018-07-19T05:52:00.781Z,29.11
2018-07-19T05:54:31.154Z,29.19
2018-07-19T05:57:01.732Z,29.17
2018-07-19T05:59:32.473Z,29.56
2018-07-19T06:02:03.132Z,29.63
2018-07-19T06:04:33.864Z,30.10
2018-07-19T06:07:04.369Z,29.87
2018-07-19T06:09:35.160Z,29.88
2018-07-19T06:12:05.832Z,29.97
2018-07-19T06:14:38.625Z,29.90
2018-07-19T06:17:09.252Z,30.37
2018-07-19T06:19:39.961Z,30.67
2018-07-19T06:22:10.662Z,29.95
2018-07-19T06:24:41.501Z,29.86
2018-07-19T06:27:12.184Z,29.73
2018-07-19T06:29:43.601Z,29.65
2018-07-19T06:32:14.251Z,30.04
2018-07-19T06:34:45.086Z,30.18
2018-07-19T06:37:15.721Z,30.28
2018-07-19T06:39:46.524Z,30.31
2018-07-19T06:42:16.981Z,29.88
2018-07-19T06:44:48.025Z,29.71
2018-07-19T06:47:18.653Z,30.40
2018-07-19T06:49:48.959Z,30.15
2018-07-19T06:52:19.614Z,30.24
2018-07-19T06:54:50.229Z,30.35
2018-07-19T06:57:20.875Z,30.41
2018-07-19T06:59:51.770Z,30.39
2018-07-19T07:02:22.196Z,31.18
2018-07-19T07:04:53.409Z,30.88
2018-07-19T07:07:23.994Z,30.93
2018-07-19T07:09:54.793Z,31.01
2018-07-19T07:12:25.453Z,30.36
2018-07-19T07:14:56.515Z,31.05
2018-07-19T07:17:27.184Z,31.63
2018-07-19T07:19:58.041Z,31.60
2018-07-19T07:22:28.677Z,31.66
2018-07-19T07:24:59.545Z,31.40
2018-07-19T07:27:30.082Z,31.57
2018-07-19T07:30:00.852Z,31.69
2018-07-19T07:32:31.432Z,31.79
2018-07-19T07:35:02.330Z,31.68
2018-07-19T07:37:33.015Z,31.73
2018-07-19T07:40:04.093Z,32.48
2018-07-19T07:42:34.656Z,31.87
2018-07-19T07:45:05.662Z,31.68
2018-07-19T07:47:36.261Z,32.84
2018-07-19T07:50:07.167Z,32.03
2018-07-19T07:52:37.864Z,31.92
2018-07-19T07:55:08.774Z,33.00
2018-07-19T07:57:39.401Z,32.36
2018-07-19T08:00:11.073Z,32.14
2018-07-19T08:02:41.381Z,32.21
2018-07-19T08:05:12.501Z,32.13
2018-07-19T08:07:43.005Z,31.34
2018-07-19T08:10:13.517Z,30.40
2018-07-19T08:12:43.889Z,30.22
2018-07-19T08:15:14.506Z,30.40
2018-07-19T08:17:44.868Z,31.09
2018-07-19T08:20:15.593Z,31.01
2018-07-19T08:22:45.864Z,31.00
2018-07-19T08:25:16.276Z,30.75
2018-07-19T08:27:47.639Z,30.74
2018-07-19T08:30:18.165Z,30.73
2018-07-19T08:32:48.581Z,30.87
2018-07-19T08:35:20.519Z,31.01
2018-07-19T08:37:50.977Z,32.21
2018-07-19T08:40:21.485Z,32.95
2018-07-19T08:42:52.728Z,32.87
2018-07-19T08:45:23.178Z,33.61
2018-07-19T08:47:53.834Z,32.48
2018-07-19T08:50:24.318Z,32.46
2018-07-19T08:52:54.644Z,32.47
2018-07-19T08:55:25.016Z,32.01
2018-07-19T08:57:55.736Z,32.67
2018-07-19T09:00:26.226Z,32.91
2018-07-19T09:02:56.821Z,33.19
2018-07-19T09:05:27.473Z,33.32
2018-07-19T09:07:59.323Z,33.63
2018-07-19T09:10:29.803Z,33.16
2018-07-19T09:13:01.309Z,33.27
2018-07-19T09:15:32.687Z,33.85
2018-07-19T09:18:03.852Z,34.00
2018-07-19T09:20:35.188Z,35.24
2018-07-19T09:23:05.760Z,34.94
2018-07-19T09:25:36.080Z,34.60
2018-07-19T09:28:08.631Z,33.90
2018-07-19T09:30:38.936Z,34.14
2018-07-19T09:33:09.386Z,34.20
2018-07-19T09:35:39.765Z,33.78
2018-07-19T09:38:10.320Z,33.20
2018-07-19T09:40:40.790Z,33.69
2018-07-19T09:43:11.587Z,34.32
2018-07-19T09:45:42.327Z,35.09
2018-07-19T09:48:14.149Z,34.37
2018-07-19T09:50:44.552Z,35.58
2018-07-19T09:53:15.466Z,36.03
2018-07-19T09:55:46.248Z,35.97
2018-07-19T09:58:17.695Z,34.34
2018-07-19T10:01:20.633Z,35.43
2018-07-19T10:03:52.211Z,35.34
2018-07-19T10:06:22.789Z,34.94
2018-07-19T10:08:53.521Z,35.88
2018-07-19T10:11:24.236Z,34.22
2018-07-19T10:13:55.148Z,34.96
2018-07-19T10:16:25.515Z,34.91
2018-07-19T10:18:56.274Z,35.38
2018-07-19T10:21:27.010Z,35.37
2018-07-19T10:23:57.854Z,35.40
2018-07-19T10:26:28.322Z,36.04
2018-07-19T10:28:59.125Z,36.20
2018-07-19T10:31:29.912Z,36.25
2018-07-19T10:34:00.903Z,36.27
2018-07-19T10:36:31.554Z,36.46
2018-07-19T10:39:02.282Z,37.05
2018-07-19T10:41:35.937Z,36.51
2018-07-19T10:44:06.643Z,37.26
2018-07-19T10:46:37.342Z,36.59
2018-07-19T10:49:08.429Z,36.93
2018-07-19T10:51:39.197Z,36.37
2018-07-19T10:54:09.841Z,36.21
2018-07-19T10:56:40.502Z,36.35
2018-07-19T10:59:10.646Z,36.30
2018-07-19T11:01:41.282Z,36.80
2018-07-19T11:04:12.196Z,37.09
2018-07-19T11:06:42.777Z,37.51
2018-07-19T11:09:13.487Z,37.42
2018-07-19T11:11:44.386Z,36.31
2018-07-19T11:14:14.759Z,36.10
2018-07-19T11:16:45.025Z,36.26
2018-07-19T11:19:15.701Z,36.74
2018-07-19T11:21:46.017Z,36.79
2018-07-19T11:24:16.909Z,36.94
2018-07-19T11:26:47.401Z,36.63
2018-07-19T11:29:17.909Z,37.17
2018-07-19T11:31:48.214Z,36.76
2018-07-19T11:34:19.260Z,36.87
2018-07-19T11:36:49.789Z,36.41
2018-07-19T11:39:20.856Z,36.53
2018-07-19T11:41:51.452Z,36.76
2018-07-19T11:44:21.963Z,36.36
2018-07-19T11:46:52.774Z,35.66
2018-07-19T11:49:23.316Z,36.61
2018-07-19T11:51:54.061Z,37.15
2018-07-19T11:54:25.153Z,37.02
2018-07-19T11:56:55.955Z,37.03
2018-07-19T11:59:26.072Z,37.21
2018-07-19T12:01:56.349Z,36.97
2018-07-19T12:04:26.697Z,38.32
2018-07-19T12:06:57.117Z,37.60
2018-07-19T12:09:27.624Z,37.37
2018-07-19T12:11:58.353Z,36.94
2018-07-19T12:14:28.889Z,37.17
2018-07-19T12:16:59.785Z,36.37
2018-07-19T12:19:30.304Z,37.07
2018-07-19T12:22:01.084Z,37.41
2018-07-19T12:24:31.881Z,37.40
2018-07-19T12:27:03.590Z,36.78
2018-07-19T12:29:34.168Z,36.92
2018-07-19T12:32:05.085Z,36.16
2018-07-19T12:34:35.507Z,36.45
2018-07-19T12:37:05.971Z,36.33
2018-07-19T12:39:36.777Z,36.14
2018-07-19T12:42:07.641Z,35.68
2018-07-19T12:44:39.431Z,35.45
2018-07-19T12:47:10.996Z,35.47
2018-07-19T12:49:41.357Z,35.68
2018-07-19T12:52:12.183Z,36.55
2018-07-19T12:54:43.021Z,36.88
2018-07-19T12:57:14.017Z,36.61
2018-07-19T12:59:44.456Z,36.43
2018-07-19T13:02:15.880Z,36.61
2018-07-19T13:04:46.205Z,36.57
2018-07-19T13:07:17.297Z,36.73
2018-07-19T13:09:48.143Z,37.33
2018-07-19T13:12:19.103Z,38.09
2018-07-19T13:14:50.089Z,37.28
2018-07-19T13:17:20.837Z,37.56
2018-07-19T13:19:51.633Z,37.26
2018-07-19T13:22:22.579Z,37.24
2018-07-19T13:24:53.285Z,36.54
2018-07-19T13:27:23.658Z,36.74
2018-07-19T13:29:53.925Z,37.02
2018-07-19T13:32:24.256Z,36.55
2018-07-19T13:34:54.585Z,36.64
2018-07-19T13:37:25.432Z,37.08
2018-07-19T13:39:56.184Z,36.81
2018-07-19T13:42:26.789Z,36.86
2018-07-19T13:44:57.406Z,36.42
2018-07-19T13:47:28.073Z,35.84
2018-07-19T13:49:58.379Z,36.04
2018-07-19T13:52:44.940Z,36.38
2018-07-19T13:55:15.229Z,35.49
2018-07-19T13:57:46.050Z,35.87
2018-07-19T14:00:16.580Z,35.59
2018-07-19T14:02:47.485Z,35.80
2018-07-19T14:05:17.752Z,35.65
2018-07-19T14:07:48.675Z,35.86
2018-07-19T14:10:19.374Z,36.07
2018-07-19T14:12:50.303Z,36.02
2018-07-19T14:15:21.480Z,36.20
2018-07-19T14:17:52.396Z,36.14
2018-07-19T14:20:23.105Z,36.03
2018-07-19T14:22:53.821Z,35.58
2018-07-19T14:25:24.621Z,35.50
2018-07-19T14:27:55.264Z,35.18
2018-07-19T14:30:25.887Z,34.98
2018-07-19T14:32:56.817Z,34.82
2018-07-19T14:35:28.945Z,35.23
2018-07-19T14:37:59.721Z,35.86
2018-07-19T14:40:30.372Z,35.77
2018-07-19T14:43:00.652Z,35.13
2018-07-19T14:45:31.405Z,35.06
2018-07-19T14:48:02.297Z,35.18
2018-07-19T14:50:32.944Z,35.26
2018-07-19T14:53:03.753Z,35.03
2018-07-19T14:55:34.501Z,35.47
2018-07-19T14:58:04.860Z,35.84
2018-07-19T15:00:35.229Z,35.68
2018-07-19T15:03:05.793Z,35.59
2018-07-19T15:05:36.114Z,35.75
2018-07-19T15:08:06.612Z,35.51
2018-07-19T15:10:36.848Z,35.84
2018-07-19T15:13:07.178Z,35.56
2018-07-19T15:15:37.688Z,35.51
2018-07-19T15:18:08.840Z,35.53
2018-07-19T15:20:39.131Z,35.14
2018-07-19T15:23:09.664Z,35.22
2018-07-19T15:25:40.311Z,35.23
2018-07-19T15:28:10.891Z,34.75
2018-07-19T15:30:41.501Z,34.81
2018-07-19T15:33:12.172Z,34.84
2018-07-19T15:35:42.424Z,34.60
2018-07-19T15:38:13.061Z,34.43
2018-07-19T15:40:43.358Z,34.44
2018-07-19T15:43:13.781Z,34.46
2018-07-19T15:45:44.130Z,34.18
2018-07-19T15:48:14.873Z,34.30
2018-07-19T15:50:45.206Z,34.08
2018-07-19T15:53:15.914Z,33.98
2018-07-19T15:55:46.228Z,33.78
2018-07-19T15:58:17.317Z,33.69
2018-07-19T16:00:47.604Z,33.21
2018-07-19T16:03:18.308Z,32.81
2018-07-19T16:05:48.870Z,32.91
2018-07-19T16:08:19.568Z,32.19
2018-07-19T16:10:50.084Z,32.36
2018-07-19T16:13:20.801Z,32.69
2018-07-19T16:15:51.501Z,32.60
2018-07-19T16:18:22.293Z,32.66
2018-07-19T16:20:52.777Z,32.79
2018-07-19T16:23:24.073Z,32.77
2018-07-19T16:25:54.677Z,33.02
2018-07-19T16:28:25.478Z,32.87
2018-07-19T16:30:56.120Z,32.99
2018-07-19T16:33:26.921Z,32.71
2018-07-19T16:35:57.596Z,32.26
2018-07-19T16:38:28.037Z,32.10
2018-07-19T16:40:58.339Z,32.10
2018-07-19T16:43:29.308Z,32.05
2018-07-19T16:46:00.063Z,31.65
2018-07-19T16:48:30.846Z,31.66
2018-07-19T16:51:01.429Z,31.44
2018-07-19T16:53:32.184Z,31.12
2018-07-19T16:56:02.815Z,30.85
2018-07-19T16:58:33.648Z,30.98
2018-07-19T17:01:04.272Z,30.83
2018-07-19T17:03:35.037Z,31.14
2018-07-19T17:06:05.673Z,30.95
2018-07-19T17:08:37.444Z,30.77
2018-07-19T17:11:08.326Z,30.62
2018-07-19T17:13:39.249Z,30.27
2018-07-19T17:16:10.881Z,30.26
2018-07-19T17:18:41.985Z,30.19
2018-07-19T17:21:12.632Z,30.16
2018-07-19T17:23:43.389Z,30.08
2018-07-19T17:26:14.100Z,29.82
2018-07-19T17:28:45.350Z,29.75
2018-07-19T17:31:15.503Z,29.65
2018-07-19T17:33:46.277Z,29.36
2018-07-19T17:36:16.788Z,29.28
2018-07-19T17:38:47.827Z,29.22
2018-07-19T17:41:18.476Z,29.28
2018-07-19T17:43:49.707Z,29.14
2018-07-19T17:46:21.365Z,29.07
2018-07-19T17:48:51.897Z,29.11
2018-07-19T17:51:23.453Z,28.68
2018-07-19T17:53:54.252Z,28.80
2018-07-19T17:56:24.897Z,28.61
2018-07-19T17:58:55.936Z,28.68
2018-07-19T18:01:26.381Z,28.50
2018-07-19T18:03:57.105Z,28.56
2018-07-19T18:06:27.488Z,28.26
2018-07-19T18:08:58.101Z,28.27
2018-07-19T18:11:28.782Z,28.46
2018-07-19T18:13:59.489Z,28.29
2018-07-19T18:16:30.090Z,28.24
2018-07-19T18:19:00.748Z,28.33
2018-07-19T18:21:31.429Z,28.17
2018-07-19T18:24:02.229Z,28.27
2018-07-19T18:26:32.909Z,27.93
2018-07-19T18:29:03.802Z,28.11
2018-07-19T18:31:34.394Z,27.91
2018-07-19T18:34:05.479Z,27.84
2018-07-19T18:36:36.133Z,28.10
2018-07-19T18:39:11.896Z,28.01
2018-07-19T18:41:42.893Z,27.93
2018-07-19T18:44:13.897Z,28.09
2018-07-19T18:46:44.772Z,27.98
2018-07-19T18:49:18.017Z,27.88
2018-07-19T18:51:48.709Z,27.77
2018-07-19T18:54:19.309Z,27.87
2018-07-19T18:56:50.050Z,27.85
2018-07-19T18:59:20.897Z,27.95
2018-07-19T19:01:51.476Z,27.77
2018-07-19T19:04:22.299Z,27.88
2018-07-19T19:06:52.941Z,27.63
2018-07-19T19:09:23.690Z,27.67
2018-07-19T19:11:54.191Z,27.61
2018-07-19T19:14:25.028Z,27.74
2018-07-19T19:16:55.339Z,27.60
2018-07-19T19:19:26.496Z,27.77
2018-07-19T19:21:56.974Z,27.73
2018-07-19T19:24:29.297Z,27.51
2018-07-19T19:27:00.232Z,27.72
2018-07-19T19:29:33.772Z,27.67
2018-07-19T19:32:06.371Z,27.57
2018-07-19T19:34:36.929Z,27.57
2018-07-19T19:37:07.629Z,27.41
2018-07-19T19:39:38.650Z,27.50
2018-07-19T19:42:09.477Z,27.50
2018-07-19T19:44:42.829Z,27.57
2018-07-19T19:47:13.613Z,27.40
2018-07-19T19:49:44.834Z,27.47
2018-07-19T19:52:16.022Z,27.47
2018-07-19T19:54:46.692Z,27.47
2018-07-19T19:57:17.105Z,27.44
2018-07-19T19:59:47.549Z,27.37
2018-07-19T20:02:18.329Z,27.36
2018-07-19T20:04:49.982Z,27.34
2018-07-19T20:07:20.553Z,27.34
2018-07-19T20:09:51.185Z,27.19
2018-07-19T20:12:21.686Z,27.19
2018-07-19T20:14:52.685Z,27.18
2018-07-19T20:17:23.313Z,27.20
2018-07-19T20:19:54.183Z,27.21
2018-07-19T20:22:24.785Z,27.04
2018-07-19T20:24:55.925Z,27.01
2018-07-19T20:27:25.964Z,27.17
2018-07-19T20:29:56.668Z,27.03
2018-07-19T20:32:27.403Z,26.98
2018-07-19T20:34:58.232Z,27.07
2018-07-19T20:37:28.934Z,27.13
2018-07-19T20:39:59.753Z,27.12
2018-07-19T20:42:30.462Z,26.87
2018-07-19T20:45:01.525Z,26.98
2018-07-19T20:47:32.113Z,27.14
2018-07-19T20:50:03.158Z,27.05
2018-07-19T20:52:33.944Z,26.98
2018-07-19T20:55:04.818Z,27.11
2018-07-19T20:57:35.557Z,27.24
2018-07-19T21:00:07.320Z,27.15
